D/T METAR WX W/DIR W/SPE G/SPE TEMP DEWP
22/04/19 17:20 EGTC 221620Z 10012KT CAVOK 22/04 Q1002 E (100°) 13.8mph 22°C 4°C
22/04/19 16:50 EGTC 221550Z 11015KT CAVOK 23/03 Q1002 ESE (110°) 17.3mph 23°C 3°C
22/04/19 16:20 EGTC 221520Z 11012KT CAVOK 23/04 Q1002 ESE (110°) 13.8mph 23°C 4°C
22/04/19 15:50 EGTC 221450Z 11012KT 080V140 CAVOK 24/06 Q1002 ESE (110°) 13.8mph 24°C 6°C
22/04/19 14:50 EGTC 221350Z 09010KT 060V120 CAVOK 24/06 Q1003 E (90°) 11.5mph 24°C 6°C
22/04/19 14:20 EGTC 221320Z 10009KT 060V140 CAVOK 23/08 Q1004 E (100°) 10.4mph 23°C 8°C
22/04/19 13:50 EGTC 221250Z 07010KT 050V120 CAVOK 23/09 Q1004 ENE (70°) 11.5mph 23°C 9°C
22/04/19 12:50 EGTC 221150Z 08011KT 9000 NSC 21/09 Q1005 E (80°) 12.7mph 21°C 9°C
22/04/19 12:20 EGTC 221120Z 07013KT 9000 NSC 19/10 Q1005 ENE (70°) 15.0mph 19°C 10°C
22/04/19 11:50 EGTC 221050Z 04009KT 8000 NSC 18/10 Q1006 NE (40°) 10.4mph 18°C 10°C
22/04/19 10:50 EGTC 220950Z 05009KT 8000 NSC 16/08 Q1007 NE (50°) 10.4mph 16°C 8°C
22/04/19 10:20 EGTC 220920Z 06010KT 9000 NSC 15/08 Q1007 ENE (60°) 11.5mph 15°C 8°C
22/04/19 09:50 EGTC 220850Z 05007KT 9000 NSC 14/07 Q1007 NE (50°) 8.1mph 14°C 7°C
22/04/19 09:20 EGTC 220820Z 05006KT 9000 NSC 11/06 Q1008 NE (50°) 6.9mph 11°C 6°C
22/04/19 08:20 EGTC 220720Z 07008KT 9000 NSC 10/05 Q1008 ENE (70°) 9.2mph 10°C 5°C
19/04/19 17:20 EGTC 191620Z 04009KT CAVOK 22/06 Q1028 NE (40°) 10.4mph 22°C 6°C
19/04/19 16:50 EGTC 191550Z 03009KT CAVOK 22/07 Q1028 NNE (30°) 10.4mph 22°C 7°C
19/04/19 16:20 EGTC 191520Z 05006KT 010V070 CAVOK 23/07 Q1028 NE (50°) 6.9mph 23°C 7°C
19/04/19 15:50 EGTC 191450Z 04008KT 020V100 CAVOK 22/06 Q1029 NE (40°) 9.2mph 22°C 6°C
19/04/19 14:50 EGTC 191350Z 05007KT 020V090 CAVOK 22/09 Q1029 NE (50°) 8.1mph 22°C 9°C
19/04/19 14:20 EGTC 191320Z 06008KT 020V090 CAVOK 21/09 Q1029 ENE (60°) 9.2mph 21°C 9°C
19/04/19 13:50 EGTC 191250Z 07009KT 020V110 CAVOK 20/10 Q1029 ENE (70°) 10.4mph 20°C 10°C
19/04/19 13:20 EGTC 191220Z 06009KT 8000 NSC 20/10 Q1029 ENE (60°) 10.4mph 20°C 10°C
19/04/19 12:50 EGTC 191150Z 05010KT 030V090 8000 NSC 19/09 Q1029 NE (50°) 11.5mph 19°C 9°C
19/04/19 12:20 EGTC 191120Z 05009KT 010V080 8000 NSC 18/09 Q1029 NE (50°) 10.4mph 18°C 9°C
19/04/19 11:50 EGTC 191050Z 04008KT 8000 NSC 16/09 Q1029 NE (40°) 9.2mph 16°C 9°C
19/04/19 11:20 EGTC 191020Z 03005KT 8000 NSC 15/09 Q1029 NNE (30°) 5.8mph 15°C 9°C
19/04/19 10:50 EGTC 190950Z 02003KT 350V060 7000 NSC 14/09 Q1029 NNE (20°) 3.5mph 14°C 9°C
19/04/19 10:20 EGTC 190920Z 03003KT 5000 HZ NSC 13/09 Q1029 HZ NNE (30°) 3.5mph 13°C 9°C
19/04/19 09:20 EGTC 190820Z 02005KT 5000 HZ NSC 11/09 Q1029 HZ NNE (20°) 5.8mph 11°C 9°C
19/04/19 08:50 EGTC 190750Z 03007KT 5000 HZ NSC 10/09 Q1029 HZ NNE (30°) 8.1mph 10°C 9°C
19/04/19 08:20 EGTC 190720Z 03008KT 4000 HZ NSC 09/08 Q1028 HZ NNE (30°) 9.2mph 9°C 8°C
18/04/19 18:20 EGTC 181720Z 09008KT CAVOK 19/06 Q1023 E (90°) 9.2mph 19°C 6°C
18/04/19 17:50 EGTC 181650Z 10010KT CAVOK 19/06 Q1023 E (100°) 11.5mph 19°C 6°C
18/04/19 17:20 EGTC 181620Z 08010KT CAVOK 19/07 Q1023 E (80°) 11.5mph 19°C 7°C
18/04/19 16:50 EGTC 181550Z 08012KT 050V120 CAVOK 21/08 Q1023 E (80°) 13.8mph 21°C 8°C
18/04/19 16:20 EGTC 181520Z 09011KT 060V130 CAVOK 21/07 Q1023 E (90°) 12.7mph 21°C 7°C
18/04/19 15:50 EGTC 181450Z 09011KT 9000 NSC 21/08 Q1023 E (90°) 12.7mph 21°C 8°C
18/04/19 15:20 EGTC 181420Z 08011KT 050V120 8000 FEW044 20/08 Q1023 E (80°) 12.7mph 20°C 8°C
18/04/19 14:50 EGTC 181350Z 09013KT 8000 FEW044 20/10 Q1023 E (90°) 15.0mph 20°C 10°C
18/04/19 13:50 EGTC 181250Z 09010KT 020V130 6000 FEW036 19/11 Q1023 E (90°) 11.5mph 19°C 11°C
18/04/19 13:20 EGTC 181220Z 08009KT 040V120 4500 HZ FEW030 19/11 Q1023 HZ E (80°) 10.4mph 19°C 11°C
18/04/19 12:50 EGTC 181150Z 08010KT 040V110 3000 HZ NSC 17/12 Q1023 HZ E (80°) 11.5mph 17°C 12°C
18/04/19 12:20 EGTC 181120Z 08010KT 2500 HZ NSC 16/12 Q1024 HZ E (80°) 11.5mph 16°C 12°C
18/04/19 11:50 EGTC 181050Z 06008KT 2500 HZ NSC 15/12 Q1024 HZ ENE (60°) 9.2mph 15°C 12°C
18/04/19 11:20 EGTC 181020Z 05007KT 030V100 2000 HZ NSC 14/12 Q1024 HZ NE (50°) 8.1mph 14°C 12°C
18/04/19 10:50 EGTC 180950Z 05008KT 010V080 2000 HZ NSC 13/12 Q1024 HZ NE (50°) 9.2mph 13°C 12°C
18/04/19 10:20 EGTC 180920Z 04008KT 2000 BR OVC003 11/11 Q1024 BR NE (40°) 9.2mph 11°C 11°C
18/04/19 09:50 EGTC 180850Z 04008KT 0800 FG OVC002 10/10 Q1024 FG NE (40°) 9.2mph 10°C 10°C
18/04/19 09:20 EGTC 180820Z 03005KT 0150 FG VV/// 08/08 Q1024 FG NNE (30°) 5.8mph 8°C 8°C
18/04/19 08:50 EGTC 180750Z 04007KT 0100 FG VV/// 07/07 Q1024 FG NE (40°) 8.1mph 7°C 7°C
18/04/19 08:20 EGTC 180720Z 04009KT 0100 FG VV/// 07/07 Q1024 FG NE (40°) 10.4mph 7°C 7°C
18/04/19 07:50 EGTC 180650Z 04008KT 0100 FG VV/// 07/07 Q1024 FG NE (40°) 9.2mph 7°C 7°C
18/04/19 07:20 EGTC 180620Z 04007KT 0100 FG VV/// 07/07 Q1023 FG NE (40°) 8.1mph 7°C 7°C
17/04/19 17:50 EGTC 171650Z 06005KT 030V100 7000 FEW035 17/09 Q1019 ENE (60°) 5.8mph 17°C 9°C
17/04/19 17:20 EGTC 171620Z 08005KT 040V130 6000 FEW035 18/10 Q1018 E (80°) 5.8mph 18°C 10°C
17/04/19 16:50 EGTC 171550Z 09005KT 050V130 6000 FEW033 18/10 Q1018 E (90°) 5.8mph 18°C 10°C
17/04/19 16:20 EGTC 171520Z VRB03KT 6000 FEW030 18/10 Q1019 N (0°) 3.5mph 18°C 10°C
17/04/19 15:50 EGTC 171450Z 04005KT 360V100 6000 FEW030 18/10 Q1019 NE (40°) 5.8mph 18°C 10°C
17/04/19 15:20 EGTC 171420Z 01005KT 290V070 5000 HZ NSC 18/09 Q1019 HZ N (10°) 5.8mph 18°C 9°C
17/04/19 14:50 EGTC 171350Z 05004KT 340V100 5000 HZ NSC 17/09 Q1019 HZ NE (50°) 4.6mph 17°C 9°C
17/04/19 14:20 EGTC 171320Z 06005KT 360V130 5000 HZ NSC 17/09 Q1019 HZ ENE (60°) 5.8mph 17°C 9°C
17/04/19 13:50 EGTC 171250Z 06006KT 020V090 5000 HZ NSC 17/09 Q1019 HZ ENE (60°) 6.9mph 17°C 9°C
17/04/19 13:20 EGTC 171220Z 03005KT 320V100 5000 HZ NSC 16/09 Q1019 HZ NNE (30°) 5.8mph 16°C 9°C
17/04/19 12:50 EGTC 171150Z VRB03KT 4000 HZ NSC 16/09 Q1019 HZ N (0°) 3.5mph 16°C 9°C
17/04/19 12:20 EGTC 171120Z VRB04KT 5000 HZ NSC 15/09 Q1019 HZ N (0°) 4.6mph 15°C 9°C
17/04/19 11:50 EGTC 171050Z 05005KT 010V110 4000 HZ NSC 14/09 Q1020 HZ NE (50°) 5.8mph 14°C 9°C
17/04/19 11:20 EGTC 171020Z VRB06KT 3000 HZ NSC 14/10 Q1019 HZ N (0°) 6.9mph 14°C 10°C
17/04/19 10:50 EGTC 170950Z 02007KT 350V060 3000 HZ NSC 12/09 Q1020 HZ NNE (20°) 8.1mph 12°C 9°C
17/04/19 09:50 EGTC 170850Z 01006KT 2000 BR BKN005 09/09 Q1020 BR N (10°) 6.9mph 9°C 9°C
17/04/19 09:20 EGTC 170820Z 01005KT 320V060 1800 BR OVC002 08/08 Q1020 BR N (10°) 5.8mph 8°C 8°C
17/04/19 08:50 EGTC 170750Z 03007KT 0600 FG VV/// 07/07 Q1019 FG NNE (30°) 8.1mph 7°C 7°C
17/04/19 08:20 EGTC 170720Z 02007KT 0800 FG OVC002 07/07 Q1019 FG NNE (20°) 8.1mph 7°C 7°C
17/04/19 07:20 EGTC 170620Z 01005KT 0300 FG VV/// 06/06 Q1019 FG N (10°) 5.8mph 6°C 6°C
16/04/19 17:50 EGTC 161650Z 25007KT 5000 HZ SCT038 13/09 Q1015 HZ WSW (250°) 8.1mph 13°C 9°C
16/04/19 17:20 EGTC 161620Z 06007KT 4000 HZ SCT038 15/08 Q1015 HZ ENE (60°) 8.1mph 15°C 8°C
16/04/19 16:50 EGTC 161550Z 04007KT 4000 HZ FEW038 15/08 Q1015 HZ NE (40°) 8.1mph 15°C 8°C
16/04/19 16:20 EGTC 161520Z 05006KT 020V080 4000 HZ SCT038 16/09 Q1015 HZ NE (50°) 6.9mph 16°C 9°C
16/04/19 15:50 EGTC 161450Z 09005KT 4500 HZ SCT036 16/08 Q1015 HZ E (90°) 5.8mph 16°C 8°C
16/04/19 15:20 EGTC 161420Z 36005KT 320V050 4500 HZ FEW038 17/09 Q1015 HZ N (360°) 5.8mph 17°C 9°C
16/04/19 14:50 EGTC 161350Z 02006KT 5000 FEW030 15/09 Q1015 NNE (20°) 6.9mph 15°C 9°C
16/04/19 14:20 EGTC 161320Z VRB02KT 6000 FEW028 15/09 Q1015 N (0°) 2.3mph 15°C 9°C
16/04/19 13:50 EGTC 161250Z 36005KT 330V040 5000 HZ FEW026 15/08 Q1015 HZ N (360°) 5.8mph 15°C 8°C
16/04/19 13:20 EGTC 161220Z 04005KT 010V080 4500 HZ FEW024 15/09 Q1015 HZ NE (40°) 5.8mph 15°C 9°C
16/04/19 12:50 EGTC 161150Z 02007KT 330V050 4500 HZ FEW025 14/09 Q1015 HZ NNE (20°) 8.1mph 14°C 9°C
16/04/19 12:20 EGTC 161120Z 05006KT 340V090 4500 HZ NSC 14/09 Q1015 HZ NE (50°) 6.9mph 14°C 9°C
16/04/19 11:50 EGTC 161050Z 02005KT 330V070 4000 HZ NSC 14/08 Q1015 HZ NNE (20°) 5.8mph 14°C 8°C
16/04/19 11:20 EGTC 161020Z VRB04KT 4000 HZ NSC 13/08 Q1015 HZ N (0°) 4.6mph 13°C 8°C
16/04/19 10:50 EGTC 160950Z VRB04KT 3000 HZ NSC 13/08 Q1015 HZ N (0°) 4.6mph 13°C 8°C
16/04/19 10:20 EGTC 160920Z 04003KT 3000 HZ NSC 12/07 Q1015 HZ NE (40°) 3.5mph 12°C 7°C
16/04/19 09:50 EGTC 160850Z VRB02KT 2500 HZ NSC 12/07 Q1014 HZ N (0°) 2.3mph 12°C 7°C
16/04/19 09:20 EGTC 160820Z 06004KT 030V100 2500 HZ NSC 10/07 Q1014 HZ ENE (60°) 4.6mph 10°C 7°C
16/04/19 08:50 EGTC 160750Z 07004KT 2500 HZ NSC 09/07 Q1014 HZ ENE (70°) 4.6mph 9°C 7°C
16/04/19 08:20 EGTC 160720Z 05005KT 2000 BR NSC 07/07 Q1014 BR NE (50°) 5.8mph 7°C 7°C
16/04/19 07:20 EGTC 160620Z 03003KT 1800 BR NSC 04/04 Q1014 BR NNE (30°) 3.5mph 4°C 4°C
15/04/19 17:50 EGTC 151650Z 10012KT CAVOK 12/02 Q1016 E (100°) 13.8mph 12°C 2°C
15/04/19 17:20 EGTC 151620Z 10013KT CAVOK 12/02 Q1016 E (100°) 15.0mph 12°C 2°C
15/04/19 16:50 EGTC 151550Z 10012KT CAVOK 12/01 Q1016 E (100°) 13.8mph 12°C 1°C
15/04/19 16:20 EGTC 151520Z 11011KT 8000 NSC 12/01 Q1016 ESE (110°) 12.7mph 12°C 1°C
15/04/19 15:50 EGTC 151450Z 10014KT 070V140 8000 NSC 12/01 Q1017 E (100°) 16.1mph 12°C 1°C
15/04/19 15:20 EGTC 151420Z 11011KT 8000 NSC 13/01 Q1017 ESE (110°) 12.7mph 13°C 1°C
15/04/19 14:50 EGTC 151350Z 11015KT 080V160 8000 NSC 13/02 Q1017 ESE (110°) 17.3mph 13°C 2°C
15/04/19 14:20 EGTC 151320Z 11016KT 8000 NSC 13/02 Q1018 ESE (110°) 18.4mph 13°C 2°C
15/04/19 13:50 EGTC 151250Z 11013KT 8000 NSC 13/03 Q1018 ESE (110°) 15.0mph 13°C 3°C
15/04/19 13:20 EGTC 151220Z 10015KT 8000 FEW040 12/04 Q1019 E (100°) 17.3mph 12°C 4°C
15/04/19 12:50 EGTC 151150Z 11017KT 8000 FEW040 12/02 Q1019 ESE (110°) 19.6mph 12°C 2°C
15/04/19 12:20 EGTC 151120Z 11017KT 8000 FEW038 12/04 Q1019 ESE (110°) 19.6mph 12°C 4°C
15/04/19 11:50 EGTC 151050Z 11016KT 8000 FEW035 11/03 Q1020 ESE (110°) 18.4mph 11°C 3°C
15/04/19 11:20 EGTC 151020Z 11016KT 8000 FEW030 11/03 Q1020 ESE (110°) 18.4mph 11°C 3°C
15/04/19 10:50 EGTC 150950Z 10016KT 8000 NSC 11/03 Q1021 E (100°) 18.4mph 11°C 3°C
15/04/19 10:20 EGTC 150920Z 10016KT 8000 NSC 10/04 Q1021 E (100°) 18.4mph 10°C 4°C
15/04/19 09:50 EGTC 150850Z 13015KT 7000 NSC 09/03 Q1021 SE (130°) 17.3mph 9°C 3°C
15/04/19 08:50 EGTC 150750Z 11014KT 6000 NSC 07/04 Q1022 ESE (110°) 16.1mph 7°C 4°C
15/04/19 08:20 EGTC 150720Z 10009KT 6000 NSC 06/04 Q1022 E (100°) 10.4mph 6°C 4°C
15/04/19 07:50 EGTC 150650Z 08007KT 5000 BR NSC 04/04 Q1022 BR E (80°) 8.1mph 4°C 4°C
15/04/19 07:20 EGTC 150620Z 08007KT 5000 BR NSC 03/03 Q1023 BR E (80°) 8.1mph 3°C 3°C
12/04/19 17:50 EGTC 121650Z 05009KT 9999 SCT040 08/M00 Q1026 NE (50°) 10.4mph 8°C 0°C
12/04/19 17:20 EGTC 121620Z 06009KT 030V100 9999 SCT040 09/01 Q1026 ENE (60°) 10.4mph 9°C 1°C
12/04/19 16:50 EGTC 121550Z 04010KT 9999 SCT040 09/05 Q1025 NE (40°) 11.5mph 9°C 5°C
12/04/19 16:20 EGTC 121520Z 06007KT 9999 SCT039 09/00 Q1025 ENE (60°) 8.1mph 9°C 0°C
12/04/19 15:50 EGTC 121450Z 03010KT 9999 SCT039 09/01 Q1026 NNE (30°) 11.5mph 9°C 1°C
12/04/19 15:20 EGTC 121420Z 05008KT 9999 BKN039 09/01 Q1026 NE (50°) 9.2mph 9°C 1°C
12/04/19 14:50 EGTC 121350Z 02009KT 9999 BKN042 10/02 Q1026 NNE (20°) 10.4mph 10°C 2°C
12/04/19 14:20 EGTC 121320Z 08008KT 9999 BKN046 09/00 Q1026 E (80°) 9.2mph 9°C 0°C
12/04/19 13:50 EGTC 121250Z 07007KT 040V120 9999 BKN048 10/00 Q1026 ENE (70°) 8.1mph 10°C 0°C
12/04/19 13:20 EGTC 121220Z 07007KT 020V100 9999 BKN040 10/01 Q1027 ENE (70°) 8.1mph 10°C 1°C
12/04/19 12:50 EGTC 121150Z 08007KT 050V120 9999 BKN038 09/00 Q1027 E (80°) 8.1mph 9°C 0°C
12/04/19 12:20 EGTC 121120Z 09006KT 060V120 9999 BKN040 09/01 Q1027 E (90°) 6.9mph 9°C 1°C
12/04/19 11:50 EGTC 121050Z 07005KT 350V120 9999 BKN035 09/01 Q1027 ENE (70°) 5.8mph 9°C 1°C
12/04/19 10:50 EGTC 120950Z 06008KT 030V100 9999 SCT028 07/01 Q1027 ENE (60°) 9.2mph 7°C 1°C
12/04/19 10:20 EGTC 120920Z 06012KT 9999 FEW025 08/02 Q1027 ENE (60°) 13.8mph 8°C 2°C
12/04/19 09:50 EGTC 120850Z 06011KT 9999 FEW023 07/02 Q1027 ENE (60°) 12.7mph 7°C 2°C
12/04/19 09:20 EGTC 120820Z 03007KT CAVOK 06/02 Q1027 NNE (30°) 8.1mph 6°C 2°C
12/04/19 08:50 EGTC 120750Z 03006KT CAVOK 05/02 Q1027 NNE (30°) 6.9mph 5°C 2°C
12/04/19 08:20 EGTC 120720Z 03006KT CAVOK 03/01 Q1027 NNE (30°) 6.9mph 3°C 1°C
12/04/19 07:20 EGTC 120620Z 36003KT CAVOK 00/M00 Q1027 N (360°) 3.5mph 0°C 0°C
11/04/19 17:50 EGTC 111650Z 06007KT 030V110 CAVOK 10/00 Q1025 ENE (60°) 8.1mph 10°C 0°C
11/04/19 17:20 EGTC 111620Z 06007KT 030V110 CAVOK 11/01 Q1025 ENE (60°) 8.1mph 11°C 1°C
11/04/19 16:20 EGTC 111520Z VRB03KT CAVOK 11/00 Q1025 N (0°) 3.5mph 11°C 0°C
11/04/19 15:50 EGTC 111450Z VRB04KT CAVOK 11/02 Q1025 N (0°) 4.6mph 11°C 2°C
11/04/19 15:20 EGTC 111420Z VRB04KT CAVOK 11/02 Q1025 N (0°) 4.6mph 11°C 2°C
11/04/19 14:50 EGTC 111350Z 04007KT 030V100 9999 FEW040 10/01 Q1025 NE (40°) 8.1mph 10°C 1°C
11/04/19 14:20 EGTC 111320Z VRB03KT 9999 FEW040 10/01 Q1026 N (0°) 3.5mph 10°C 1°C
11/04/19 13:50 EGTC 111250Z 09004KT 010V170 9999 FEW037 09/01 Q1026 E (90°) 4.6mph 9°C 1°C